sensor_id;sensor_type;location;lat;lon;timestamp;P1;durP1;ratioP1;P2;durP2;ratioP2
69937;SDS011;57248;47.320;15.998;2023-01-13T00:02:07;10.35;;;3.33;;
69937;SDS011;57248;47.320;15.998;2023-01-13T00:04:39;11.93;;;3.72;;
69937;SDS011;57248;47.320;15.998;2023-01-13T00:07:11;9.30;;;3.45;;
69937;SDS011;57248;47.320;15.998;2023-01-13T00:09:43;9.93;;;3.55;;
69937;SDS011;57248;47.320;15.998;2023-01-13T00:12:15;11.37;;;3.43;;
69937;SDS011;57248;47.320;15.998;2023-01-13T00:14:47;11.50;;;3.90;;
69937;SDS011;57248;47.320;15.998;2023-01-13T00:17:33;9.90;;;3.72;;
69937;SDS011;57248;47.320;15.998;2023-01-13T00:20:05;10.95;;;3.97;;
69937;SDS011;57248;47.320;15.998;2023-01-13T00:22:38;10.68;;;3.80;;
69937;SDS011;57248;47.320;15.998;2023-01-13T00:25:10;10.47;;;3.57;;
69937;SDS011;57248;47.320;15.998;2023-01-13T00:27:35;10.35;;;3.97;;
69937;SDS011;57248;47.320;15.998;2023-01-13T00:30:08;10.52;;;3.45;;
69937;SDS011;57248;47.320;15.998;2023-01-13T00:32:40;9.23;;;3.20;;
69937;SDS011;57248;47.320;15.998;2023-01-13T00:35:12;8.93;;;3.22;;
69937;SDS011;57248;47.320;15.998;2023-01-13T00:37:44;9.02;;;3.25;;
69937;SDS011;57248;47.320;15.998;2023-01-13T00:40:16;7.40;;;2.90;;
69937;SDS011;57248;47.320;15.998;2023-01-13T00:42:48;11.40;;;3.88;;
69937;SDS011;57248;47.320;15.998;2023-01-13T00:45:39;10.27;;;3.40;;
69937;SDS011;57248;47.320;15.998;2023-01-13T00:48:11;9.63;;;3.40;;
69937;SDS011;57248;47.320;15.998;2023-01-13T00:50:36;10.07;;;3.58;;
69937;SDS011;57248;47.320;15.998;2023-01-13T00:53:08;9.37;;;3.80;;
69937;SDS011;57248;47.320;15.998;2023-01-13T00:55:40;14.30;;;3.83;;
69937;SDS011;57248;47.320;15.998;2023-01-13T00:58:12;10.32;;;3.33;;
69937;SDS011;57248;47.320;15.998;2023-01-13T01:00:44;9.52;;;3.63;;
69937;SDS011;57248;47.320;15.998;2023-01-13T01:03:16;10.43;;;3.35;;
69937;SDS011;57248;47.320;15.998;2023-01-13T01:05:48;10.53;;;3.67;;
69937;SDS011;57248;47.320;15.998;2023-01-13T01:08:20;10.05;;;3.67;;
69937;SDS011;57248;47.320;15.998;2023-01-13T01:10:59;10.05;;;3.75;;
69937;SDS011;57248;47.320;15.998;2023-01-13T01:13:41;10.13;;;3.47;;
69937;SDS011;57248;47.320;15.998;2023-01-13T01:16:14;6.82;;;2.88;;
69937;SDS011;57248;47.320;15.998;2023-01-13T01:18:54;10.47;;;3.37;;
69937;SDS011;57248;47.320;15.998;2023-01-13T01:21:26;9.35;;;2.90;;
69937;SDS011;57248;47.320;15.998;2023-01-13T01:23:53;7.85;;;3.00;;
69937;SDS011;57248;47.320;15.998;2023-01-13T01:26:25;8.70;;;3.28;;
69937;SDS011;57248;47.320;15.998;2023-01-13T01:28:59;8.07;;;2.65;;
69937;SDS011;57248;47.320;15.998;2023-01-13T01:31:33;9.07;;;3.00;;
69937;SDS011;57248;47.320;15.998;2023-01-13T01:34:05;7.97;;;2.72;;
69937;SDS011;57248;47.320;15.998;2023-01-13T01:36:37;8.35;;;2.63;;
69937;SDS011;57248;47.320;15.998;2023-01-13T01:39:10;8.90;;;2.88;;
69937;SDS011;57248;47.320;15.998;2023-01-13T01:41:42;8.10;;;2.97;;
69937;SDS011;57248;47.320;15.998;2023-01-13T01:47:13;7.35;;;2.40;;
69937;SDS011;57248;47.320;15.998;2023-01-13T01:49:48;7.68;;;2.50;;
69937;SDS011;57248;47.320;15.998;2023-01-13T01:55:17;8.05;;;2.60;;
69937;SDS011;57248;47.320;15.998;2023-01-13T01:57:53;6.67;;;2.33;;
69937;SDS011;57248;47.320;15.998;2023-01-13T02:00:38;7.90;;;2.63;;
69937;SDS011;57248;47.320;15.998;2023-01-13T02:03:10;10.57;;;3.28;;
69937;SDS011;57248;47.320;15.998;2023-01-13T02:05:42;7.78;;;2.70;;
69937;SDS011;57248;47.320;15.998;2023-01-13T02:08:14;8.80;;;2.85;;
69937;SDS011;57248;47.320;15.998;2023-01-13T02:10:47;9.27;;;3.10;;
69937;SDS011;57248;47.320;15.998;2023-01-13T02:13:23;10.20;;;3.05;;
69937;SDS011;57248;47.320;15.998;2023-01-13T02:16:11;8.18;;;3.05;;
69937;SDS011;57248;47.320;15.998;2023-01-13T02:45:20;7.82;;;3.17;;
69937;SDS011;57248;47.320;15.998;2023-01-13T02:47:49;11.98;;;3.40;;
69937;SDS011;57248;47.320;15.998;2023-01-13T02:50:24;9.65;;;3.13;;
69937;SDS011;57248;47.320;15.998;2023-01-13T02:53:02;8.97;;;3.20;;
69937;SDS011;57248;47.320;15.998;2023-01-13T02:55:42;10.90;;;4.03;;
69937;SDS011;57248;47.320;15.998;2023-01-13T02:58:25;9.98;;;3.33;;
69937;SDS011;57248;47.320;15.998;2023-01-13T03:00:59;10.07;;;3.45;;
69937;SDS011;57248;47.320;15.998;2023-01-13T03:03:31;10.95;;;3.38;;
69937;SDS011;57248;47.320;15.998;2023-01-13T03:06:13;9.50;;;3.13;;
69937;SDS011;57248;47.320;15.998;2023-01-13T03:08:54;9.60;;;3.15;;
69937;SDS011;57248;47.320;15.998;2023-01-13T03:11:31;10.80;;;3.38;;
69937;SDS011;57248;47.320;15.998;2023-01-13T03:22:30;9.77;;;3.13;;
69937;SDS011;57248;47.320;15.998;2023-01-13T03:27:51;11.10;;;4.07;;
69937;SDS011;57248;47.320;15.998;2023-01-13T03:32:52;8.10;;;3.10;;
69937;SDS011;57248;47.320;15.998;2023-01-13T03:35:31;8.37;;;2.90;;
69937;SDS011;57248;47.320;15.998;2023-01-13T03:38:09;7.35;;;2.58;;
69937;SDS011;57248;47.320;15.998;2023-01-13T03:40:55;8.18;;;2.78;;
69937;SDS011;57248;47.320;15.998;2023-01-13T03:43:32;8.80;;;2.70;;
69937;SDS011;57248;47.320;15.998;2023-01-13T03:46:31;7.70;;;2.60;;
69937;SDS011;57248;47.320;15.998;2023-01-13T03:49:09;8.33;;;2.83;;
69937;SDS011;57248;47.320;15.998;2023-01-13T03:51:47;8.13;;;2.65;;
69937;SDS011;57248;47.320;15.998;2023-01-13T03:54:27;7.93;;;2.67;;
69937;SDS011;57248;47.320;15.998;2023-01-13T03:57:02;8.88;;;2.90;;
69937;SDS011;57248;47.320;15.998;2023-01-13T03:59:39;9.57;;;2.70;;
69937;SDS011;57248;47.320;15.998;2023-01-13T04:04:57;7.90;;;2.65;;
69937;SDS011;57248;47.320;15.998;2023-01-13T04:10:43;10.77;;;4.05;;
69937;SDS011;57248;47.320;15.998;2023-01-13T04:13:20;10.30;;;3.50;;
69937;SDS011;57248;47.320;15.998;2023-01-13T04:16:01;12.57;;;4.87;;
69937;SDS011;57248;47.320;15.998;2023-01-13T04:18:36;11.80;;;4.50;;
69937;SDS011;57248;47.320;15.998;2023-01-13T04:21:16;11.23;;;3.67;;
69937;SDS011;57248;47.320;15.998;2023-01-13T04:23:48;8.38;;;3.15;;
69937;SDS011;57248;47.320;15.998;2023-01-13T04:26:22;8.07;;;2.92;;
69937;SDS011;57248;47.320;15.998;2023-01-13T04:28:55;9.10;;;3.23;;
69937;SDS011;57248;47.320;15.998;2023-01-13T04:31:27;9.07;;;3.17;;
69937;SDS011;57248;47.320;15.998;2023-01-13T04:33:59;8.93;;;3.40;;
69937;SDS011;57248;47.320;15.998;2023-01-13T04:36:31;9.07;;;2.75;;
69937;SDS011;57248;47.320;15.998;2023-01-13T04:39:03;7.45;;;2.60;;
69937;SDS011;57248;47.320;15.998;2023-01-13T04:41:28;7.50;;;2.47;;
69937;SDS011;57248;47.320;15.998;2023-01-13T04:44:24;8.00;;;2.83;;
69937;SDS011;57248;47.320;15.998;2023-01-13T04:46:57;7.30;;;2.95;;
69937;SDS011;57248;47.320;15.998;2023-01-13T04:49:23;7.67;;;2.80;;
69937;SDS011;57248;47.320;15.998;2023-01-13T04:51:55;8.40;;;2.67;;
69937;SDS011;57248;47.320;15.998;2023-01-13T04:54:27;7.30;;;2.60;;
69937;SDS011;57248;47.320;15.998;2023-01-13T04:56:52;6.23;;;2.40;;
69937;SDS011;57248;47.320;15.998;2023-01-13T04:59:25;6.85;;;2.60;;
69937;SDS011;57248;47.320;15.998;2023-01-13T05:01:57;6.43;;;2.60;;
69937;SDS011;57248;47.320;15.998;2023-01-13T05:04:29;6.97;;;2.40;;
69937;SDS011;57248;47.320;15.998;2023-01-13T05:07:01;7.13;;;2.40;;
69937;SDS011;57248;47.320;15.998;2023-01-13T05:09:33;8.38;;;2.47;;
69937;SDS011;57248;47.320;15.998;2023-01-13T05:12:05;6.30;;;2.35;;
69937;SDS011;57248;47.320;15.998;2023-01-13T05:15:03;8.13;;;3.35;;
69937;SDS011;57248;47.320;15.998;2023-01-13T05:17:54;9.40;;;4.00;;
69937;SDS011;57248;47.320;15.998;2023-01-13T05:20:33;8.20;;;3.03;;
69937;SDS011;57248;47.320;15.998;2023-01-13T05:23:05;8.50;;;2.55;;
69937;SDS011;57248;47.320;15.998;2023-01-13T05:25:56;8.23;;;2.58;;
69937;SDS011;57248;47.320;15.998;2023-01-13T05:28:31;6.55;;;2.45;;
69937;SDS011;57248;47.320;15.998;2023-01-13T05:31:04;10.17;;;3.27;;
69937;SDS011;57248;47.320;15.998;2023-01-13T05:33:36;8.88;;;3.60;;
69937;SDS011;57248;47.320;15.998;2023-01-13T05:36:08;7.72;;;2.75;;
69937;SDS011;57248;47.320;15.998;2023-01-13T05:38:40;7.20;;;2.92;;
69937;SDS011;57248;47.320;15.998;2023-01-13T05:41:13;7.32;;;2.55;;
69937;SDS011;57248;47.320;15.998;2023-01-13T05:44:04;8.47;;;2.80;;
69937;SDS011;57248;47.320;15.998;2023-01-13T05:46:36;7.10;;;3.20;;
69937;SDS011;57248;47.320;15.998;2023-01-13T05:49:08;10.90;;;3.60;;
69937;SDS011;57248;47.320;15.998;2023-01-13T05:51:40;8.73;;;3.10;;
69937;SDS011;57248;47.320;15.998;2023-01-13T05:54:12;8.15;;;3.10;;
69937;SDS011;57248;47.320;15.998;2023-01-13T05:56:44;7.77;;;3.17;;
69937;SDS011;57248;47.320;15.998;2023-01-13T05:59:16;10.15;;;3.30;;
69937;SDS011;57248;47.320;15.998;2023-01-13T06:01:48;9.38;;;3.50;;
69937;SDS011;57248;47.320;15.998;2023-01-13T06:04:21;9.75;;;3.72;;
69937;SDS011;57248;47.320;15.998;2023-01-13T06:06:53;8.30;;;3.30;;
69937;SDS011;57248;47.320;15.998;2023-01-13T06:09:26;9.70;;;3.77;;
69937;SDS011;57248;47.320;15.998;2023-01-13T06:11:58;9.25;;;3.47;;
69937;SDS011;57248;47.320;15.998;2023-01-13T06:14:31;10.00;;;3.50;;
69937;SDS011;57248;47.320;15.998;2023-01-13T06:17:17;8.50;;;3.10;;
69937;SDS011;57248;47.320;15.998;2023-01-13T06:19:49;8.75;;;3.50;;
69937;SDS011;57248;47.320;15.998;2023-01-13T06:22:25;13.97;;;4.20;;
69937;SDS011;57248;47.320;15.998;2023-01-13T06:25:11;8.10;;;3.67;;
69937;SDS011;57248;47.320;15.998;2023-01-13T06:27:51;9.55;;;3.60;;
69937;SDS011;57248;47.320;15.998;2023-01-13T06:30:28;8.65;;;3.10;;
69937;SDS011;57248;47.320;15.998;2023-01-13T06:33:06;10.60;;;2.97;;
69937;SDS011;57248;47.320;15.998;2023-01-13T06:35:44;9.13;;;3.37;;
69937;SDS011;57248;47.320;15.998;2023-01-13T06:38:22;9.05;;;3.65;;
69937;SDS011;57248;47.320;15.998;2023-01-13T06:40:57;9.70;;;3.55;;
69937;SDS011;57248;47.320;15.998;2023-01-13T06:43:29;12.95;;;4.38;;
69937;SDS011;57248;47.320;15.998;2023-01-13T06:46:01;11.77;;;5.22;;
69937;SDS011;57248;47.320;15.998;2023-01-13T06:48:33;14.17;;;5.53;;
69937;SDS011;57248;47.320;15.998;2023-01-13T06:51:06;11.75;;;4.93;;
69937;SDS011;57248;47.320;15.998;2023-01-13T06:53:38;11.30;;;4.60;;
69937;SDS011;57248;47.320;15.998;2023-01-13T06:56:10;9.60;;;4.00;;
69937;SDS011;57248;47.320;15.998;2023-01-13T06:58:42;10.45;;;3.85;;
69937;SDS011;57248;47.320;15.998;2023-01-13T07:01:14;8.43;;;3.53;;
69937;SDS011;57248;47.320;15.998;2023-01-13T07:03:46;11.63;;;4.68;;
69937;SDS011;57248;47.320;15.998;2023-01-13T07:06:18;10.98;;;3.65;;
69937;SDS011;57248;47.320;15.998;2023-01-13T07:08:50;11.57;;;3.63;;
69937;SDS011;57248;47.320;15.998;2023-01-13T07:11:22;9.70;;;3.40;;
69937;SDS011;57248;47.320;15.998;2023-01-13T07:13:54;9.67;;;3.93;;
69937;SDS011;57248;47.320;15.998;2023-01-13T07:16:44;11.48;;;3.35;;
69937;SDS011;57248;47.320;15.998;2023-01-13T07:19:30;9.05;;;3.67;;
69937;SDS011;57248;47.320;15.998;2023-01-13T07:22:02;9.60;;;3.88;;
69937;SDS011;57248;47.320;15.998;2023-01-13T07:24:34;10.73;;;3.55;;
69937;SDS011;57248;47.320;15.998;2023-01-13T07:27:06;9.80;;;4.00;;
69937;SDS011;57248;47.320;15.998;2023-01-13T07:29:38;10.15;;;4.38;;
69937;SDS011;57248;47.320;15.998;2023-01-13T07:32:10;9.20;;;3.50;;
69937;SDS011;57248;47.320;15.998;2023-01-13T07:34:42;11.43;;;4.22;;
69937;SDS011;57248;47.320;15.998;2023-01-13T07:37:16;9.18;;;3.95;;
69937;SDS011;57248;47.320;15.998;2023-01-13T07:39:48;9.10;;;3.67;;
69937;SDS011;57248;47.320;15.998;2023-01-13T07:42:21;8.48;;;3.60;;
69937;SDS011;57248;47.320;15.998;2023-01-13T07:45:12;9.70;;;3.88;;
69937;SDS011;57248;47.320;15.998;2023-01-13T07:47:44;10.88;;;4.40;;
69937;SDS011;57248;47.320;15.998;2023-01-13T07:50:16;9.90;;;4.00;;
69937;SDS011;57248;47.320;15.998;2023-01-13T07:52:48;11.50;;;4.43;;
69937;SDS011;57248;47.320;15.998;2023-01-13T07:55:21;10.45;;;3.97;;
69937;SDS011;57248;47.320;15.998;2023-01-13T07:57:53;10.27;;;4.22;;
69937;SDS011;57248;47.320;15.998;2023-01-13T08:00:25;9.95;;;3.97;;
69937;SDS011;57248;47.320;15.998;2023-01-13T08:02:58;12.27;;;4.43;;
69937;SDS011;57248;47.320;15.998;2023-01-13T08:05:33;11.23;;;4.60;;
69937;SDS011;57248;47.320;15.998;2023-01-13T08:08:06;11.18;;;4.28;;
69937;SDS011;57248;47.320;15.998;2023-01-13T08:10:38;11.55;;;4.53;;
69937;SDS011;57248;47.320;15.998;2023-01-13T08:13:14;14.27;;;5.30;;
69937;SDS011;57248;47.320;15.998;2023-01-13T08:15:57;16.60;;;7.82;;
69937;SDS011;57248;47.320;15.998;2023-01-13T08:18:45;19.07;;;7.47;;
69937;SDS011;57248;47.320;15.998;2023-01-13T08:21:17;16.70;;;7.78;;
69937;SDS011;57248;47.320;15.998;2023-01-13T08:23:43;17.87;;;8.23;;
69937;SDS011;57248;47.320;15.998;2023-01-13T08:26:16;23.23;;;11.40;;
69937;SDS011;57248;47.320;15.998;2023-01-13T08:28:49;23.42;;;10.23;;
69937;SDS011;57248;47.320;15.998;2023-01-13T08:31:21;26.40;;;10.23;;
69937;SDS011;57248;47.320;15.998;2023-01-13T08:33:53;23.13;;;9.70;;
69937;SDS011;57248;47.320;15.998;2023-01-13T08:36:25;19.17;;;9.10;;
69937;SDS011;57248;47.320;15.998;2023-01-13T08:38:57;23.90;;;8.68;;
69937;SDS011;57248;47.320;15.998;2023-01-13T08:41:29;22.13;;;7.82;;
69937;SDS011;57248;47.320;15.998;2023-01-13T08:44:19;20.45;;;8.30;;
69937;SDS011;57248;47.320;15.998;2023-01-13T08:46:51;18.55;;;8.43;;
69937;SDS011;57248;47.320;15.998;2023-01-13T08:49:24;13.97;;;6.20;;
69937;SDS011;57248;47.320;15.998;2023-01-13T08:51:57;13.57;;;5.40;;
69937;SDS011;57248;47.320;15.998;2023-01-13T08:54:29;13.55;;;5.20;;
69937;SDS011;57248;47.320;15.998;2023-01-13T08:57:01;13.73;;;5.60;;
69937;SDS011;57248;47.320;15.998;2023-01-13T08:59:42;14.35;;;4.75;;
69937;SDS011;57248;47.320;15.998;2023-01-13T09:02:28;12.63;;;4.90;;
69937;SDS011;57248;47.320;15.998;2023-01-13T09:05:01;14.68;;;5.72;;
69937;SDS011;57248;47.320;15.998;2023-01-13T09:07:34;14.60;;;5.68;;
69937;SDS011;57248;47.320;15.998;2023-01-13T09:10:08;13.80;;;5.88;;
69937;SDS011;57248;47.320;15.998;2023-01-13T09:12:41;14.73;;;5.57;;
69937;SDS011;57248;47.320;15.998;2023-01-13T09:15:32;15.77;;;6.37;;
69937;SDS011;57248;47.320;15.998;2023-01-13T09:18:18;18.38;;;7.18;;
69937;SDS011;57248;47.320;15.998;2023-01-13T09:20:51;15.98;;;5.80;;
69937;SDS011;57248;47.320;15.998;2023-01-13T09:23:23;10.32;;;4.95;;
69937;SDS011;57248;47.320;15.998;2023-01-13T09:25:55;12.48;;;5.38;;
69937;SDS011;57248;47.320;15.998;2023-01-13T09:28:27;14.13;;;6.60;;
69937;SDS011;57248;47.320;15.998;2023-01-13T09:30:59;19.17;;;7.90;;
69937;SDS011;57248;47.320;15.998;2023-01-13T09:33:32;14.75;;;6.47;;
69937;SDS011;57248;47.320;15.998;2023-01-13T09:36:23;11.68;;;4.68;;
69937;SDS011;57248;47.320;15.998;2023-01-13T09:38:48;10.27;;;3.93;;
69937;SDS011;57248;47.320;15.998;2023-01-13T09:41:22;10.65;;;3.58;;
69937;SDS011;57248;47.320;15.998;2023-01-13T09:44:23;9.63;;;3.67;;
69937;SDS011;57248;47.320;15.998;2023-01-13T09:47:01;10.13;;;3.90;;
69937;SDS011;57248;47.320;15.998;2023-01-13T09:49:38;11.82;;;5.15;;
69937;SDS011;57248;47.320;15.998;2023-01-13T09:52:16;9.40;;;3.92;;
69937;SDS011;57248;47.320;15.998;2023-01-13T09:57:41;8.70;;;4.10;;
69937;SDS011;57248;47.320;15.998;2023-01-13T10:00:21;8.87;;;3.50;;
69937;SDS011;57248;47.320;15.998;2023-01-13T10:02:58;9.40;;;4.38;;
69937;SDS011;57248;47.320;15.998;2023-01-13T10:06:00;8.05;;;3.25;;
69937;SDS011;57248;47.320;15.998;2023-01-13T10:08:39;7.57;;;3.20;;
69937;SDS011;57248;47.320;15.998;2023-01-13T10:11:14;7.78;;;2.90;;
69937;SDS011;57248;47.320;15.998;2023-01-13T10:17:07;8.18;;;3.90;;
69937;SDS011;57248;47.320;15.998;2023-01-13T10:22:53;11.05;;;4.25;;
69937;SDS011;57248;47.320;15.998;2023-01-13T10:25:57;10.55;;;4.72;;
69937;SDS011;57248;47.320;15.998;2023-01-13T10:28:54;14.87;;;7.27;;
69937;SDS011;57248;47.320;15.998;2023-01-13T10:31:20;13.50;;;7.13;;
69937;SDS011;57248;47.320;15.998;2023-01-13T10:33:57;10.57;;;4.68;;
69937;SDS011;57248;47.320;15.998;2023-01-13T10:36:31;9.75;;;3.92;;
69937;SDS011;57248;47.320;15.998;2023-01-13T10:39:08;7.10;;;3.08;;
69937;SDS011;57248;47.320;15.998;2023-01-13T10:41:45;9.03;;;3.40;;
69937;SDS011;57248;47.320;15.998;2023-01-13T10:44:17;7.97;;;3.80;;
69937;SDS011;57248;47.320;15.998;2023-01-13T10:46:53;8.52;;;3.30;;
69937;SDS011;57248;47.320;15.998;2023-01-13T10:49:29;7.07;;;3.00;;
69937;SDS011;57248;47.320;15.998;2023-01-13T10:52:22;8.48;;;3.25;;
69937;SDS011;57248;47.320;15.998;2023-01-13T10:54:56;9.57;;;3.53;;
69937;SDS011;57248;47.320;15.998;2023-01-13T10:57:28;11.27;;;5.05;;
69937;SDS011;57248;47.320;15.998;2023-01-13T11:00:14;13.93;;;5.63;;
69937;SDS011;57248;47.320;15.998;2023-01-13T11:03:16;13.32;;;5.60;;
69937;SDS011;57248;47.320;15.998;2023-01-13T11:05:50;12.95;;;5.43;;
69937;SDS011;57248;47.320;15.998;2023-01-13T11:08:25;12.73;;;5.70;;
69937;SDS011;57248;47.320;15.998;2023-01-13T11:11:02;15.45;;;6.45;;
69937;SDS011;57248;47.320;15.998;2023-01-13T11:13:34;12.10;;;5.35;;
69937;SDS011;57248;47.320;15.998;2023-01-13T11:16:37;13.98;;;5.50;;
69937;SDS011;57248;47.320;15.998;2023-01-13T11:19:14;10.98;;;5.50;;
69937;SDS011;57248;47.320;15.998;2023-01-13T11:24:36;16.27;;;9.15;;
69937;SDS011;57248;47.320;15.998;2023-01-13T11:27:14;17.65;;;9.30;;
69937;SDS011;57248;47.320;15.998;2023-01-13T11:30:09;13.60;;;6.82;;
69937;SDS011;57248;47.320;15.998;2023-01-13T11:36:05;9.40;;;3.57;;
69937;SDS011;57248;47.320;15.998;2023-01-13T11:38:42;11.48;;;5.22;;
69937;SDS011;57248;47.320;15.998;2023-01-13T11:41:16;7.15;;;3.28;;
69937;SDS011;57248;47.320;15.998;2023-01-13T11:46:27;7.63;;;3.72;;
69937;SDS011;57248;47.320;15.998;2023-01-13T11:48:59;9.67;;;3.73;;
69937;SDS011;57248;47.320;15.998;2023-01-13T12:05:38;8.23;;;4.38;;
69937;SDS011;57248;47.320;15.998;2023-01-13T12:08:37;9.20;;;4.80;;
69937;SDS011;57248;47.320;15.998;2023-01-13T12:11:18;10.77;;;4.40;;
69937;SDS011;57248;47.320;15.998;2023-01-13T12:21:51;16.05;;;5.70;;
69937;SDS011;57248;47.320;15.998;2023-01-13T12:24:49;14.43;;;5.60;;
69937;SDS011;57248;47.320;15.998;2023-01-13T12:32:58;8.20;;;3.85;;
69937;SDS011;57248;47.320;15.998;2023-01-13T12:35:42;8.07;;;3.90;;
69937;SDS011;57248;47.320;15.998;2023-01-13T12:38:35;8.45;;;3.58;;
69937;SDS011;57248;47.320;15.998;2023-01-13T12:44:02;7.67;;;3.47;;
69937;SDS011;57248;47.320;15.998;2023-01-13T12:46:55;8.75;;;3.70;;
69937;SDS011;57248;47.320;15.998;2023-01-13T12:49:29;8.65;;;4.40;;
69937;SDS011;57248;47.320;15.998;2023-01-13T12:52:08;9.15;;;4.43;;
69937;SDS011;57248;47.320;15.998;2023-01-13T12:57:21;10.43;;;4.60;;
69937;SDS011;57248;47.320;15.998;2023-01-13T13:02:37;12.35;;;4.50;;
69937;SDS011;57248;47.320;15.998;2023-01-13T13:10:57;12.17;;;4.97;;
69937;SDS011;57248;47.320;15.998;2023-01-13T13:13:47;13.10;;;3.42;;
69937;SDS011;57248;47.320;15.998;2023-01-13T13:30:14;9.55;;;4.90;;
69937;SDS011;57248;47.320;15.998;2023-01-13T13:35:52;14.57;;;4.72;;
69937;SDS011;57248;47.320;15.998;2023-01-13T13:38:39;9.70;;;4.57;;
69937;SDS011;57248;47.320;15.998;2023-01-13T13:41:46;11.90;;;4.95;;
69937;SDS011;57248;47.320;15.998;2023-01-13T13:44:41;8.75;;;4.40;;
69937;SDS011;57248;47.320;15.998;2023-01-13T13:47:36;9.85;;;5.05;;
69937;SDS011;57248;47.320;15.998;2023-01-13T13:50:14;10.32;;;4.65;;
69937;SDS011;57248;47.320;15.998;2023-01-13T13:53:08;9.80;;;4.40;;
69937;SDS011;57248;47.320;15.998;2023-01-13T13:55:40;9.23;;;4.18;;
69937;SDS011;57248;47.320;15.998;2023-01-13T13:58:24;11.40;;;5.30;;
69937;SDS011;57248;47.320;15.998;2023-01-13T14:00:52;11.68;;;5.25;;
69937;SDS011;57248;47.320;15.998;2023-01-13T14:03:25;14.25;;;5.85;;
69937;SDS011;57248;47.320;15.998;2023-01-13T14:06:01;10.60;;;5.10;;
69937;SDS011;57248;47.320;15.998;2023-01-13T14:08:37;10.05;;;4.70;;
69937;SDS011;57248;47.320;15.998;2023-01-13T14:11:30;8.48;;;4.63;;
69937;SDS011;57248;47.320;15.998;2023-01-13T14:14:04;12.05;;;4.82;;
69937;SDS011;57248;47.320;15.998;2023-01-13T14:16:50;11.15;;;4.78;;
69937;SDS011;57248;47.320;15.998;2023-01-13T14:22:11;10.73;;;4.68;;
69937;SDS011;57248;47.320;15.998;2023-01-13T14:24:47;14.57;;;5.75;;
69937;SDS011;57248;47.320;15.998;2023-01-13T14:27:26;13.00;;;5.22;;
69937;SDS011;57248;47.320;15.998;2023-01-13T14:30:00;10.57;;;4.95;;
69937;SDS011;57248;47.320;15.998;2023-01-13T14:32:33;10.17;;;4.40;;
69937;SDS011;57248;47.320;15.998;2023-01-13T14:35:07;10.13;;;4.85;;
69937;SDS011;57248;47.320;15.998;2023-01-13T14:37:40;9.98;;;5.22;;
69937;SDS011;57248;47.320;15.998;2023-01-13T14:40:38;15.70;;;6.05;;
69937;SDS011;57248;47.320;15.998;2023-01-13T14:43:16;12.57;;;5.13;;
69937;SDS011;57248;47.320;15.998;2023-01-13T14:45:57;13.10;;;5.77;;
69937;SDS011;57248;47.320;15.998;2023-01-13T14:48:33;12.93;;;5.45;;
69937;SDS011;57248;47.320;15.998;2023-01-13T14:51:08;12.20;;;5.22;;
69937;SDS011;57248;47.320;15.998;2023-01-13T14:53:43;12.80;;;5.45;;
69937;SDS011;57248;47.320;15.998;2023-01-13T15:03:13;23.25;;;10.48;;
69937;SDS011;57248;47.320;15.998;2023-01-13T15:05:38;18.27;;;7.65;;
69937;SDS011;57248;47.320;15.998;2023-01-13T15:16:13;17.55;;;8.18;;
69937;SDS011;57248;47.320;15.998;2023-01-13T15:18:58;17.33;;;7.35;;
69937;SDS011;57248;47.320;15.998;2023-01-13T15:21:30;14.55;;;7.30;;
69937;SDS011;57248;47.320;15.998;2023-01-13T15:24:02;15.13;;;6.72;;
69937;SDS011;57248;47.320;15.998;2023-01-13T15:26:36;12.20;;;5.90;;
69937;SDS011;57248;47.320;15.998;2023-01-13T15:29:09;12.23;;;6.05;;
69937;SDS011;57248;47.320;15.998;2023-01-13T15:31:45;13.25;;;5.53;;
69937;SDS011;57248;47.320;15.998;2023-01-13T15:34:21;11.50;;;5.50;;
69937;SDS011;57248;47.320;15.998;2023-01-13T15:36:53;15.50;;;5.60;;
69937;SDS011;57248;47.320;15.998;2023-01-13T15:39:25;10.63;;;5.00;;
69937;SDS011;57248;47.320;15.998;2023-01-13T15:41:50;10.73;;;4.93;;
69937;SDS011;57248;47.320;15.998;2023-01-13T15:44:41;10.40;;;4.70;;
69937;SDS011;57248;47.320;15.998;2023-01-13T15:47:31;13.38;;;5.10;;
69937;SDS011;57248;47.320;15.998;2023-01-13T15:50:03;13.35;;;5.28;;
69937;SDS011;57248;47.320;15.998;2023-01-13T15:52:35;14.18;;;5.85;;
69937;SDS011;57248;47.320;15.998;2023-01-13T15:55:02;12.68;;;6.10;;
69937;SDS011;57248;47.320;15.998;2023-01-13T15:57:35;12.93;;;5.77;;
69937;SDS011;57248;47.320;15.998;2023-01-13T16:00:26;11.75;;;5.40;;
69937;SDS011;57248;47.320;15.998;2023-01-13T16:02:58;10.88;;;4.50;;
69937;SDS011;57248;47.320;15.998;2023-01-13T16:05:30;15.35;;;5.93;;
69937;SDS011;57248;47.320;15.998;2023-01-13T16:08:02;16.70;;;7.32;;
69937;SDS011;57248;47.320;15.998;2023-01-13T16:10:34;16.27;;;6.77;;
69937;SDS011;57248;47.320;15.998;2023-01-13T16:13:06;20.75;;;7.75;;
69937;SDS011;57248;47.320;15.998;2023-01-13T16:15:40;20.02;;;8.48;;
69937;SDS011;57248;47.320;15.998;2023-01-13T16:18:22;22.63;;;9.90;;
69937;SDS011;57248;47.320;15.998;2023-01-13T16:20:58;25.20;;;10.73;;
69937;SDS011;57248;47.320;15.998;2023-01-13T16:23:31;24.13;;;10.40;;
69937;SDS011;57248;47.320;15.998;2023-01-13T16:26:04;25.38;;;11.35;;
69937;SDS011;57248;47.320;15.998;2023-01-13T16:28:40;36.67;;;14.68;;
69937;SDS011;57248;47.320;15.998;2023-01-13T16:33:55;43.88;;;20.35;;
69937;SDS011;57248;47.320;15.998;2023-01-13T16:36:30;23.47;;;10.63;;
69937;SDS011;57248;47.320;15.998;2023-01-13T16:39:04;21.98;;;9.68;;
69937;SDS011;57248;47.320;15.998;2023-01-13T16:41:52;25.65;;;11.02;;
69937;SDS011;57248;47.320;15.998;2023-01-13T16:44:24;25.35;;;10.57;;
69937;SDS011;57248;47.320;15.998;2023-01-13T16:46:56;21.48;;;9.27;;
69937;SDS011;57248;47.320;15.998;2023-01-13T16:49:28;16.83;;;7.83;;
69937;SDS011;57248;47.320;15.998;2023-01-13T16:52:00;12.60;;;5.55;;
69937;SDS011;57248;47.320;15.998;2023-01-13T16:54:32;12.65;;;5.43;;
69937;SDS011;57248;47.320;15.998;2023-01-13T16:57:04;12.43;;;5.15;;
69937;SDS011;57248;47.320;15.998;2023-01-13T16:59:38;10.63;;;4.50;;
69937;SDS011;57248;47.320;15.998;2023-01-13T17:02:11;11.73;;;4.97;;
69937;SDS011;57248;47.320;15.998;2023-01-13T17:04:45;11.32;;;4.75;;
69937;SDS011;57248;47.320;15.998;2023-01-13T17:07:17;14.25;;;6.80;;
69937;SDS011;57248;47.320;15.998;2023-01-13T17:09:49;18.75;;;7.95;;
69937;SDS011;57248;47.320;15.998;2023-01-13T17:12:22;18.52;;;7.45;;
69937;SDS011;57248;47.320;15.998;2023-01-13T17:14:48;14.60;;;6.53;;
69937;SDS011;57248;47.320;15.998;2023-01-13T17:17:26;15.63;;;7.22;;
69937;SDS011;57248;47.320;15.998;2023-01-13T17:20:13;19.63;;;8.82;;
69937;SDS011;57248;47.320;15.998;2023-01-13T17:22:47;20.03;;;8.63;;
69937;SDS011;57248;47.320;15.998;2023-01-13T17:25:20;19.23;;;7.65;;
69937;SDS011;57248;47.320;15.998;2023-01-13T17:27:52;18.02;;;8.05;;
69937;SDS011;57248;47.320;15.998;2023-01-13T17:30:24;21.95;;;9.60;;
69937;SDS011;57248;47.320;15.998;2023-01-13T17:32:57;26.52;;;11.52;;
69937;SDS011;57248;47.320;15.998;2023-01-13T17:35:23;28.77;;;12.37;;
69937;SDS011;57248;47.320;15.998;2023-01-13T17:37:55;28.60;;;12.13;;
69937;SDS011;57248;47.320;15.998;2023-01-13T17:40:27;27.13;;;12.63;;
69937;SDS011;57248;47.320;15.998;2023-01-13T17:42:59;21.25;;;10.15;;
69937;SDS011;57248;47.320;15.998;2023-01-13T17:45:31;22.52;;;10.55;;
69937;SDS011;57248;47.320;15.998;2023-01-13T17:48:03;25.47;;;11.90;;